Time;durP1;ratioP1;P1;durP2;ratioP2;P2;SDS_P1;SDS_P2;PMS_P1;PMS_P2;Temp;Humidity;BMP_temperature;BMP_pressure;BME280_temperature;BME280_humidity;BME280_pressure;Samples;Min_cycle;Max_cycle;Signal;HPM_P1;HPM_P2
2021/12/24 00:00:16;;;;;;;3.33;3.23;;;15.90;63.80;;;;;;5050725;28;44004;-75
2021/12/24 00:02:44;;;;;;;3.40;3.30;;;15.90;63.90;;;;;;5069156;28;43438;-74
2021/12/24 00:05:14;;;;;;;4.00;3.80;;;15.90;64.10;;;;;;5051179;28;43361;-75
2021/12/24 00:07:42;;;;;;;4.30;3.60;;;15.90;64.10;;;;;;5051484;28;43527;-75
2021/12/24 00:10:11;;;;;;;4.83;4.07;;;15.90;64.10;;;;;;5069056;28;43926;-75
2021/12/24 00:12:44;;;;;;;3.97;3.77;;;15.90;63.80;;;;;;5068972;28;44057;-74
2021/12/24 00:15:33;;;;;;;3.53;3.33;;;16.00;63.60;;;;;;5069455;28;43420;-74
2021/12/24 00:18:08;;;;;;;3.63;3.40;;;16.00;63.50;;;;;;5069819;28;43940;-74
2021/12/24 00:37:25;;;;;;;3.50;3.40;;;15.90;64.10;;;;;;5070971;28;46094;-69
2021/12/24 00:40:03;;;;;;;3.20;3.10;;;15.80;64.10;;;;;;5083865;28;43995;-69
2021/12/24 00:42:31;;;;;;;3.63;3.33;;;15.80;64.20;;;;;;5083689;28;43983;-69
2021/12/24 00:44:59;;;;;;;3.53;3.40;;;15.80;64.20;;;;;;5082077;28;46133;-70
2021/12/24 00:47:27;;;;;;;3.23;3.13;;;15.80;64.20;;;;;;5081899;28;45149;-69
2021/12/24 00:49:57;;;;;;;3.40;3.30;;;15.80;64.20;;;;;;5083269;27;44118;-69
2021/12/24 00:52:45;;;;;;;3.37;3.27;;;15.90;64.20;;;;;;5083339;27;43967;-69
2021/12/24 00:55:13;;;;;;;3.57;3.37;;;15.90;64.10;;;;;;5083256;28;45130;-69
2021/12/24 00:57:43;;;;;;;3.57;3.37;;;16.10;63.60;;;;;;5075500;28;44540;-69
2021/12/24 01:00:12;;;;;;;3.50;3.30;;;16.20;63.10;;;;;;5061880;28;44031;-68
2021/12/24 01:02:41;;;;;;;4.53;3.33;;;16.30;62.90;;;;;;5083292;28;44224;-69
2021/12/24 01:05:09;;;;;;;3.20;3.10;;;16.30;62.90;;;;;;5082011;28;45690;-69
2021/12/24 01:07:39;;;;;;;2.93;2.83;;;16.20;62.90;;;;;;5081505;28;45866;-69
2021/12/24 01:10:07;;;;;;;3.23;3.13;;;16.20;63.20;;;;;;5083002;28;43987;-69
2021/12/24 01:12:37;;;;;;;3.20;3.07;;;16.10;63.40;;;;;;5081822;28;44277;-70
2021/12/24 01:15:06;;;;;;;2.80;2.70;;;16.10;63.60;;;;;;5081405;28;45813;-69
2021/12/24 01:17:40;;;;;;;3.57;3.37;;;16.00;63.70;;;;;;5081526;28;43958;-69
2021/12/24 01:20:18;;;;;;;3.00;2.90;;;16.00;63.90;;;;;;5083222;27;43915;-68
2021/12/24 01:25:33;;;;;;;3.10;3.00;;;15.90;64.10;;;;;;5082364;27;43769;-69
2021/12/24 01:28:28;;;;;;;3.50;3.40;;;15.90;64.10;;;;;;5081295;28;44932;-69
2021/12/24 01:39:19;;;;;;;3.27;3.10;;;16.00;64.40;;;;;;5067548;28;45082;-68
2021/12/24 01:44:34;;;;;;;3.00;2.90;;;16.00;63.80;;;;;;5067913;28;43814;-68
2021/12/24 01:47:08;;;;;;;3.20;3.10;;;16.00;63.80;;;;;;5067310;28;44034;-68
2021/12/24 01:49:36;;;;;;;3.30;3.20;;;15.90;63.90;;;;;;5067347;28;43431;-69
2021/12/24 01:52:08;;;;;;;3.23;3.13;;;16.00;64.20;;;;;;5067127;28;43981;-68
2021/12/24 01:54:41;;;;;;;3.13;3.03;;;15.90;64.10;;;;;;5067725;28;44268;-69
2021/12/24 01:57:09;;;;;;;3.00;2.90;;;15.90;64.20;;;;;;5068718;28;44970;-70
2021/12/24 01:59:38;;;;;;;3.00;2.90;;;15.90;64.20;;;;;;5068578;28;43957;-69
2021/12/24 02:02:06;;;;;;;3.30;3.10;;;15.80;64.20;;;;;;5066834;28;44076;-69
2021/12/24 02:04:35;;;;;;;3.10;3.00;;;15.90;64.30;;;;;;5069015;28;44093;-68
2021/12/24 02:07:03;;;;;;;3.03;2.93;;;15.90;64.30;;;;;;5067172;28;43980;-69
2021/12/24 02:09:31;;;;;;;2.87;2.67;;;15.80;64.30;;;;;;5068378;28;43949;-69
2021/12/24 02:11:59;;;;;;;3.03;2.93;;;15.80;64.30;;;;;;5067245;28;44165;-69
2021/12/24 02:14:34;;;;;;;2.93;2.87;;;15.90;64.50;;;;;;5067510;28;44046;-68
2021/12/24 02:17:26;;;;;;;3.37;3.00;;;16.00;64.30;;;;;;5066666;28;44035;-69
2021/12/24 02:28:21;;;;;;;3.00;2.90;;;16.30;62.70;;;;;;5068507;28;44058;-69
2021/12/24 02:30:49;;;;;;;2.97;2.87;;;16.30;63.00;;;;;;5066722;28;44735;-69
2021/12/24 02:33:17;;;;;;;2.90;2.80;;;16.20;63.20;;;;;;5066848;28;43897;-69
2021/12/24 02:35:47;;;;;;;2.93;2.80;;;16.10;63.40;;;;;;5067199;28;43995;-69
2021/12/24 02:38:15;;;;;;;2.73;2.63;;;16.10;63.50;;;;;;5066634;28;45933;-69
2021/12/24 02:40:43;;;;;;;3.10;3.00;;;16.00;63.70;;;;;;5067860;28;43971;-68
2021/12/24 02:43:14;;;;;;;3.00;2.90;;;16.00;63.90;;;;;;5067844;28;44061;-69
2021/12/24 02:45:45;;;;;;;2.87;2.77;;;16.00;64.10;;;;;;5066061;28;44165;-68
2021/12/24 02:53:58;;;;;;;2.83;2.73;;;15.90;64.10;;;;;;5067796;28;43968;-70
2021/12/24 02:56:29;;;;;;;2.90;2.80;;;15.90;64.30;;;;;;5068335;28;44006;-68
2021/12/24 02:58:58;;;;;;;3.53;3.23;;;16.00;64.20;;;;;;5067852;28;43587;-68
2021/12/24 03:01:28;;;;;;;2.90;2.80;;;16.00;63.80;;;;;;5067317;28;43986;-68
2021/12/24 03:03:56;;;;;;;3.10;3.00;;;16.10;63.70;;;;;;5066098;28;43944;-69
2021/12/24 03:06:27;;;;;;;3.00;2.90;;;16.10;63.80;;;;;;5066791;28;43977;-68
2021/12/24 03:08:55;;;;;;;2.90;2.80;;;16.00;63.80;;;;;;5067608;28;43911;-69
2021/12/24 03:11:24;;;;;;;2.80;2.70;;;16.00;63.90;;;;;;5066392;28;46186;-69
2021/12/24 03:13:52;;;;;;;3.07;2.97;;;16.00;64.10;;;;;;5067722;28;43864;-69
2021/12/24 03:16:21;;;;;;;2.80;2.70;;;15.90;64.10;;;;;;5066704;28;43913;-69
2021/12/24 03:18:52;;;;;;;2.90;2.80;;;15.90;64.10;;;;;;5065980;28;43915;-69
2021/12/24 03:21:27;;;;;;;2.80;2.70;;;15.90;64.20;;;;;;5065710;28;44573;-69
2021/12/24 03:26:45;;;;;;;2.90;2.80;;;15.80;64.40;;;;;;5066366;28;43948;-69
2021/12/24 03:29:15;;;;;;;2.83;2.73;;;15.80;64.50;;;;;;5065882;28;44060;-68
2021/12/24 03:31:43;;;;;;;3.10;3.00;;;15.80;64.50;;;;;;5065858;28;44929;-68
2021/12/24 03:34:12;;;;;;;3.00;2.80;;;15.80;64.50;;;;;;5067149;28;43951;-69
2021/12/24 03:36:40;;;;;;;3.27;2.97;;;15.80;64.60;;;;;;5066280;28;43882;-70
2021/12/24 03:39:12;;;;;;;3.27;3.00;;;15.80;64.50;;;;;;5065603;28;43867;-69
2021/12/24 03:41:40;;;;;;;3.00;2.90;;;15.90;64.30;;;;;;5065650;28;44419;-69
2021/12/24 03:44:11;;;;;;;2.80;2.70;;;16.10;64.00;;;;;;5065396;28;44003;-69
2021/12/24 03:46:49;;;;;;;3.07;2.97;;;16.20;63.60;;;;;;5066079;28;43603;-69
2021/12/24 03:49:21;;;;;;;2.93;2.73;;;16.30;63.20;;;;;;5066972;28;43848;-69
2021/12/24 03:51:55;;;;;;;3.00;2.90;;;16.30;63.10;;;;;;5065695;28;44763;-69
2021/12/24 03:57:10;;;;;;;2.87;2.77;;;16.30;63.40;;;;;;5061871;28;43416;-69
2021/12/24 03:59:57;;;;;;;2.80;2.70;;;16.20;63.40;;;;;;5063636;28;43958;-69
2021/12/24 04:02:43;;;;;;;2.67;2.57;;;16.10;63.50;;;;;;5063872;28;43948;-69
2021/12/24 04:05:47;;;;;;;2.70;2.60;;;16.10;63.70;;;;;;5043868;28;44020;-69
2021/12/24 04:08:21;;;;;;;2.70;2.60;;;16.10;63.80;;;;;;5056845;28;43979;-70
2021/12/24 04:11:10;;;;;;;2.80;2.70;;;16.10;64.00;;;;;;5062284;28;44684;-69
2021/12/24 04:13:40;;;;;;;2.57;2.47;;;16.00;64.10;;;;;;5065046;28;45015;-69
2021/12/24 04:16:08;;;;;;;2.97;2.80;;;16.00;64.20;;;;;;5066556;28;43979;-69
2021/12/24 04:19:11;;;;;;;2.80;2.70;;;16.00;64.20;;;;;;5064017;28;43959;-68
2021/12/24 04:27:11;;;;;;;2.53;2.43;;;16.10;63.80;;;;;;5066742;28;44031;-69
2021/12/24 04:29:39;;;;;;;2.60;2.50;;;16.10;63.80;;;;;;5065480;28;43889;-69
2021/12/24 04:32:11;;;;;;;2.70;2.60;;;16.10;63.80;;;;;;5064825;28;45966;-69
2021/12/24 04:34:54;;;;;;;2.90;2.80;;;16.10;64.10;;;;;;5065083;28;44006;-69
2021/12/24 04:38:07;;;;;;;2.67;2.57;;;16.00;64.20;;;;;;5065046;28;43884;-69
2021/12/24 04:51:45;;;;;;;2.63;2.53;;;15.90;64.50;;;;;;5065218;28;43865;-69
2021/12/24 05:02:58;;;;;;;4.43;3.03;;;15.90;64.80;;;;;;5064910;28;43450;-68
2021/12/24 05:05:37;;;;;;;2.90;2.80;;;16.00;64.60;;;;;;5064451;28;43952;-69
2021/12/24 05:08:19;;;;;;;2.80;2.70;;;16.10;64.20;;;;;;5064785;28;43908;-69
2021/12/24 05:10:48;;;;;;;2.80;2.70;;;16.30;63.60;;;;;;5061600;28;44059;-69
2021/12/24 05:13:18;;;;;;;2.90;2.77;;;16.40;63.20;;;;;;5078994;28;44035;-69
2021/12/24 05:16:13;;;;;;;2.60;2.50;;;16.40;63.10;;;;;;5066294;28;44055;-69
2021/12/24 05:22:07;;;;;;;2.67;2.57;;;16.30;63.50;;;;;;5067417;28;43778;-69
2021/12/24 05:24:38;;;;;;;2.53;2.47;;;16.20;63.70;;;;;;5067977;28;44122;-69
2021/12/24 05:27:06;;;;;;;2.70;2.60;;;16.20;63.90;;;;;;5067590;28;45862;-69
2021/12/24 05:29:34;;;;;;;2.77;2.67;;;16.10;63.90;;;;;;5069085;28;43829;-69
2021/12/24 05:32:04;;;;;;;2.80;2.70;;;16.10;64.10;;;;;;5067667;28;43414;-68
2021/12/24 05:34:33;;;;;;;2.83;2.63;;;16.00;64.20;;;;;;5068070;28;44233;-69
2021/12/24 05:37:01;;;;;;;3.43;3.23;;;16.00;64.30;;;;;;5068984;28;43926;-69
2021/12/24 05:39:29;;;;;;;2.73;2.60;;;16.00;64.20;;;;;;5067731;28;44034;-69
2021/12/24 05:41:58;;;;;;;2.93;2.73;;;16.00;64.30;;;;;;5067664;28;43973;-69
2021/12/24 05:44:27;;;;;;;3.17;2.97;;;16.00;64.50;;;;;;5067749;28;43643;-69
2021/12/24 05:47:22;;;;;;;3.63;3.33;;;16.10;64.30;;;;;;5059253;28;44194;-69
2021/12/24 05:49:51;;;;;;;3.50;3.30;;;16.10;64.00;;;;;;5067757;28;45009;-69
2021/12/24 05:52:37;;;;;;;3.30;3.00;;;16.10;63.80;;;;;;5066055;28;43947;-69
2021/12/24 05:55:15;;;;;;;3.73;3.47;;;16.10;63.80;;;;;;5067592;28;44126;-68
2021/12/24 05:57:44;;;;;;;3.70;3.50;;;16.10;64.00;;;;;;5067250;28;45534;-69
2021/12/24 06:00:13;;;;;;;3.30;3.10;;;16.10;64.10;;;;;;5066902;28;45142;-69
2021/12/24 06:02:46;;;;;;;3.63;3.40;;;16.00;64.20;;;;;;5067418;28;43940;-69
2021/12/24 06:05:14;;;;;;;5.17;3.70;;;16.00;64.20;;;;;;5068783;28;44309;-69
2021/12/24 06:07:42;;;;;;;4.00;3.60;;;16.00;64.40;;;;;;5068438;28;43940;-68
2021/12/24 06:10:10;;;;;;;3.97;3.63;;;15.90;64.30;;;;;;5068282;28;43912;-69
2021/12/24 06:12:38;;;;;;;3.83;3.53;;;15.90;64.50;;;;;;5068564;28;43913;-69
2021/12/24 06:15:08;;;;;;;5.10;4.00;;;15.90;64.60;;;;;;5067299;28;44283;-69
2021/12/24 06:17:38;;;;;;;3.40;3.20;;;15.90;64.60;;;;;;5068376;28;44009;-69
2021/12/24 06:20:09;;;;;;;4.80;3.73;;;15.90;64.60;;;;;;5068368;28;44002;-68
2021/12/24 06:22:37;;;;;;;4.60;4.20;;;15.90;64.60;;;;;;5068037;28;43924;-69
2021/12/24 06:25:05;;;;;;;4.37;3.97;;;15.90;64.70;;;;;;5068586;28;44268;-68
2021/12/24 06:27:33;;;;;;;6.27;4.43;;;16.00;64.50;;;;;;5068174;28;43975;-69
2021/12/24 06:30:01;;;;;;;5.20;4.00;;;16.10;64.10;;;;;;5068198;28;44085;-68
2021/12/24 06:32:29;;;;;;;3.97;3.57;;;16.30;64.30;;;;;;5066819;28;43373;-70
2021/12/24 06:34:57;;;;;;;5.03;4.17;;;16.40;63.80;;;;;;5068409;28;43992;-68
2021/12/24 06:37:26;;;;;;;7.43;3.97;;;16.50;62.80;;;;;;5067995;28;43845;-69
2021/12/24 06:39:55;;;;;;;5.73;4.27;;;16.40;62.70;;;;;;5067934;28;43928;-69
2021/12/24 06:42:27;;;;;;;4.03;3.63;;;16.40;63.00;;;;;;5068306;28;43270;-69
2021/12/24 06:44:55;;;;;;;3.97;3.67;;;16.30;63.20;;;;;;5068276;28;44184;-69
2021/12/24 06:47:23;;;;;;;4.73;3.97;;;16.30;63.50;;;;;;5067670;28;44022;-69
2021/12/24 06:49:51;;;;;;;4.23;3.83;;;16.20;63.70;;;;;;5068013;28;44086;-68
2021/12/24 06:52:19;;;;;;;3.70;3.33;;;16.10;63.80;;;;;;5067884;28;43917;-68
2021/12/24 06:54:48;;;;;;;3.70;3.50;;;16.10;64.00;;;;;;5068071;28;43945;-69
2021/12/24 06:57:19;;;;;;;4.33;4.03;;;16.00;64.10;;;;;;5066108;28;45316;-68
2021/12/24 06:59:47;;;;;;;3.83;3.53;;;16.00;64.20;;;;;;5066331;28;44614;-69
2021/12/24 07:02:15;;;;;;;3.90;3.70;;;16.00;64.20;;;;;;5066208;28;43939;-69
2021/12/24 07:04:43;;;;;;;6.33;4.03;;;16.00;64.40;;;;;;5067867;28;43901;-69
2021/12/24 07:07:11;;;;;;;3.97;3.50;;;16.00;64.50;;;;;;5067369;28;44068;-69
2021/12/24 07:09:42;;;;;;;4.50;4.10;;;16.00;64.30;;;;;;5067350;28;44009;-69
2021/12/24 07:12:12;;;;;;;5.47;4.00;;;16.10;64.10;;;;;;5067755;28;43721;-69
2021/12/24 07:14:40;;;;;;;4.97;3.70;;;16.10;63.80;;;;;;5067763;28;43979;-69
2021/12/24 07:17:09;;;;;;;3.67;3.37;;;16.10;63.90;;;;;;5065955;28;46462;-70
2021/12/24 07:19:37;;;;;;;3.90;3.53;;;16.10;64.00;;;;;;5067458;28;44267;-69
2021/12/24 07:22:07;;;;;;;3.90;3.57;;;16.10;64.10;;;;;;5067213;28;44129;-69
2021/12/24 07:24:35;;;;;;;4.40;3.80;;;16.10;64.30;;;;;;5067655;28;44107;-69
2021/12/24 07:27:03;;;;;;;3.93;3.63;;;16.00;64.20;;;;;;5067105;28;44110;-69
2021/12/24 07:29:32;;;;;;;4.10;3.80;;;16.00;64.30;;;;;;5067085;28;44039;-69
2021/12/24 07:32:00;;;;;;;3.97;3.40;;;16.00;64.40;;;;;;5066620;28;43399;-69
2021/12/24 07:34:28;;;;;;;3.57;3.27;;;16.00;64.50;;;;;;5067532;28;44018;-69
2021/12/24 07:36:56;;;;;;;3.73;3.43;;;16.00;64.60;;;;;;5067014;28;43992;-69
2021/12/24 07:39:24;;;;;;;4.23;3.57;;;15.90;64.50;;;;;;5067252;28;43917;-69
2021/12/24 07:41:52;;;;;;;3.67;3.37;;;15.90;65.30;;;;;;5067632;28;44287;-69
2021/12/24 07:44:20;;;;;;;3.90;3.60;;;15.90;64.60;;;;;;5067480;28;44003;-70
2021/12/24 07:46:58;;;;;;;4.13;3.73;;;15.90;64.70;;;;;;5067186;28;44018;-69
2021/12/24 07:49:39;;;;;;;3.83;3.47;;;15.90;64.80;;;;;;5067064;28;43901;-69
2021/12/24 07:52:12;;;;;;;4.10;3.40;;;16.00;64.60;;;;;;5066827;28;43903;-69
2021/12/24 07:54:41;;;;;;;3.90;3.60;;;16.20;64.40;;;;;;5067064;28;43526;-70
2021/12/24 07:57:09;;;;;;;3.70;3.40;;;16.30;63.80;;;;;;5066253;28;43872;-69
2021/12/24 07:59:38;;;;;;;3.67;3.37;;;16.40;63.50;;;;;;5066403;28;44031;-69
2021/12/24 08:02:11;;;;;;;3.50;3.20;;;16.40;63.30;;;;;;5066255;28;44109;-69
2021/12/24 08:04:39;;;;;;;3.57;3.27;;;16.40;63.40;;;;;;5066937;28;43977;-70
2021/12/24 08:07:08;;;;;;;3.90;3.50;;;16.30;63.50;;;;;;5066263;28;43912;-68
2021/12/24 08:09:37;;;;;;;3.67;3.40;;;16.20;63.70;;;;;;5064892;28;45521;-69
2021/12/24 08:12:06;;;;;;;3.87;3.57;;;16.20;63.90;;;;;;5066286;28;44026;-69
2021/12/24 08:14:34;;;;;;;3.17;2.97;;;16.10;64.00;;;;;;5066697;28;43940;-68
2021/12/24 08:17:02;;;;;;;3.73;3.40;;;16.10;64.20;;;;;;5066252;28;44013;-68
2021/12/24 08:19:31;;;;;;;3.67;3.30;;;16.10;64.30;;;;;;5066044;28;44067;-69
2021/12/24 08:21:59;;;;;;;3.40;3.30;;;16.00;64.40;;;;;;5066014;28;44065;-69
2021/12/24 08:24:27;;;;;;;3.77;3.47;;;16.00;64.50;;;;;;5066451;28;43967;-70
2021/12/24 08:26:55;;;;;;;3.77;3.40;;;16.00;64.60;;;;;;5066085;28;44004;-70
2021/12/24 08:29:23;;;;;;;3.50;3.30;;;15.90;64.60;;;;;;5066342;28;43986;-68
2021/12/24 08:31:51;;;;;;;3.63;3.43;;;16.00;64.80;;;;;;5066464;28;43919;-70
2021/12/24 08:34:19;;;;;;;5.87;3.33;;;16.10;64.50;;;;;;5066317;28;44098;-69
2021/12/24 08:36:49;;;;;;;3.40;3.20;;;16.10;64.10;;;;;;5065932;28;43906;-69
2021/12/24 08:39:19;;;;;;;3.67;3.40;;;16.20;64.00;;;;;;5066059;28;43967;-69
2021/12/24 08:41:49;;;;;;;3.67;3.40;;;16.20;64.10;;;;;;5065980;28;43948;-69
2021/12/24 08:44:17;;;;;;;3.40;3.20;;;16.10;64.10;;;;;;5068227;28;43944;-69
2021/12/24 08:46:45;;;;;;;3.77;3.50;;;16.10;64.20;;;;;;5069462;28;44037;-69
2021/12/24 08:49:13;;;;;;;3.43;3.27;;;16.10;64.30;;;;;;5069450;28;43946;-69
2021/12/24 08:51:41;;;;;;;3.50;3.30;;;16.10;64.40;;;;;;5069470;28;44046;-69
2021/12/24 08:54:10;;;;;;;3.23;3.03;;;16.00;64.50;;;;;;5069702;28;43547;-68
2021/12/24 08:56:39;;;;;;;3.20;3.00;;;16.00;64.50;;;;;;5069922;28;44054;-69
2021/12/24 08:59:07;;;;;;;3.63;3.27;;;16.00;64.60;;;;;;5069251;28;43378;-68
2021/12/24 09:01:35;;;;;;;3.70;3.40;;;16.00;64.70;;;;;;5069306;28;43998;-69
2021/12/24 09:04:03;;;;;;;3.50;3.20;;;16.00;64.70;;;;;;5069700;28;44058;-70
2021/12/24 09:06:31;;;;;;;3.10;3.00;;;15.90;64.70;;;;;;5067498;28;46175;-69
2021/12/24 09:08:59;;;;;;;3.73;3.50;;;15.90;64.70;;;;;;5068976;28;43431;-69
2021/12/24 09:11:28;;;;;;;5.13;3.40;;;15.90;64.90;;;;;;5069094;28;44010;-69
2021/12/24 09:13:56;;;;;;;4.00;3.70;;;16.00;64.90;;;;;;5069455;28;44387;-68
2021/12/24 09:16:23;;;;;;;3.80;3.50;;;16.10;64.60;;;;;;5069077;28;44146;-69
2021/12/24 09:18:59;;;;;;;3.73;3.43;;;16.20;64.20;;;;;;5069267;28;43877;-69
2021/12/24 09:21:27;;;;;;;3.60;3.40;;;16.40;63.80;;;;;;5068761;28;44048;-69
2021/12/24 09:23:57;;;;;;;3.47;3.23;;;16.40;63.40;;;;;;5063037;28;43984;-69
2021/12/24 09:26:32;;;;;;;4.00;3.20;;;16.50;63.30;;;;;;5063105;28;45059;-69
2021/12/24 09:29:00;;;;;;;3.30;3.10;;;16.40;63.30;;;;;;5067618;28;44716;-68
2021/12/24 09:31:28;;;;;;;2.93;2.83;;;16.30;63.40;;;;;;5068771;28;43971;-69
2021/12/24 09:33:56;;;;;;;4.13;3.53;;;16.30;63.70;;;;;;5069279;28;43388;-70
2021/12/24 09:36:26;;;;;;;3.70;3.50;;;16.20;63.80;;;;;;5067005;28;45155;-69
2021/12/24 09:38:55;;;;;;;3.10;2.90;;;16.20;64.00;;;;;;5068692;28;44073;-68
2021/12/24 09:41:22;;;;;;;3.17;3.07;;;16.20;64.20;;;;;;5067614;28;44007;-69
2021/12/24 09:43:57;;;;;;;3.53;3.33;;;16.10;64.30;;;;;;5069351;28;43951;-69
2021/12/24 09:46:26;;;;;;;3.60;3.40;;;16.10;64.40;;;;;;5068551;28;44023;-69
2021/12/24 09:48:54;;;;;;;3.30;3.10;;;16.10;64.30;;;;;;5068720;28;44186;-70
2021/12/24 09:51:23;;;;;;;3.23;3.07;;;16.10;64.50;;;;;;5068778;28;43978;-69
2021/12/24 09:53:51;;;;;;;3.30;3.10;;;16.10;64.60;;;;;;5068599;28;44054;-69
2021/12/24 09:56:19;;;;;;;3.33;3.23;;;16.10;64.40;;;;;;5068313;28;45385;-69
2021/12/24 09:58:47;;;;;;;3.50;3.30;;;16.20;64.10;;;;;;5068316;28;43997;-69
2021/12/24 10:01:30;;;;;;;3.50;3.30;;;16.20;63.90;;;;;;5068057;28;43994;-69
2021/12/24 10:04:03;;;;;;;2.97;2.87;;;16.20;63.90;;;;;;5069079;28;43814;-69
2021/12/24 10:06:31;;;;;;;3.20;3.10;;;16.20;64.00;;;;;;5066506;28;46231;-69
2021/12/24 10:09:04;;;;;;;3.43;3.23;;;16.20;64.20;;;;;;5068076;28;43398;-70
2021/12/24 10:11:46;;;;;;;3.00;2.90;;;16.10;64.30;;;;;;5067985;28;43943;-68
2021/12/24 10:14:14;;;;;;;3.10;3.00;;;16.10;64.30;;;;;;5069267;28;44366;-69
2021/12/24 10:16:44;;;;;;;3.57;3.33;;;16.10;64.50;;;;;;5066429;28;47170;-70
2021/12/24 10:19:13;;;;;;;3.50;3.30;;;16.00;64.50;;;;;;5067890;28;44262;-69
2021/12/24 10:21:41;;;;;;;3.17;3.07;;;16.00;64.60;;;;;;5066345;28;43963;-69
2021/12/24 10:24:13;;;;;;;3.13;3.03;;;16.00;64.70;;;;;;5068509;28;43813;-69
2021/12/24 10:26:45;;;;;;;4.60;3.63;;;16.00;64.80;;;;;;5067979;28;43988;-70
2021/12/24 10:29:14;;;;;;;2.93;2.83;;;16.00;64.90;;;;;;5068028;28;43988;-69
2021/12/24 10:31:44;;;;;;;3.37;3.17;;;16.00;64.90;;;;;;5067981;28;43974;-69
2021/12/24 10:34:25;;;;;;;3.70;3.33;;;15.90;65.00;;;;;;5068273;28;43395;-69
2021/12/24 10:37:00;;;;;;;3.27;3.13;;;16.00;64.90;;;;;;5067988;28;43925;-69
2021/12/24 10:39:30;;;;;;;3.57;3.27;;;16.10;64.50;;;;;;5067658;28;43956;-69
2021/12/24 10:41:58;;;;;;;3.30;3.20;;;16.30;64.20;;;;;;5067556;28;44055;-69
2021/12/24 10:44:27;;;;;;;3.17;3.03;;;16.40;63.80;;;;;;5061309;28;43900;-70
2021/12/24 10:47:03;;;;;;;3.37;3.23;;;16.50;63.60;;;;;;5060968;28;43936;-68
2021/12/24 10:49:52;;;;;;;3.50;3.20;;;16.40;63.50;;;;;;5067639;28;44064;-68
2021/12/24 10:55:11;;;;;;;2.90;2.80;;;16.30;63.80;;;;;;5049760;28;44018;-69
2021/12/24 10:57:41;;;;;;;3.30;3.10;;;16.30;64.10;;;;;;5061008;28;43934;-69
2021/12/24 11:00:32;;;;;;;3.10;2.90;;;16.20;64.10;;;;;;5067287;28;43862;-69
2021/12/24 11:03:02;;;;;;;3.20;3.07;;;16.20;64.30;;;;;;5067627;28;44018;-70
2021/12/24 11:05:35;;;;;;;2.87;2.77;;;16.10;64.30;;;;;;5067510;28;44011;-69
2021/12/24 11:08:04;;;;;;;3.20;3.00;;;16.10;64.40;;;;;;5066704;28;43844;-69
2021/12/24 11:10:33;;;;;;;3.20;3.00;;;16.10;64.50;;;;;;5067032;28;44054;-69
2021/12/24 11:13:07;;;;;;;3.10;3.00;;;16.10;64.60;;;;;;5065793;28;43842;-69
2021/12/24 11:15:37;;;;;;;3.00;2.83;;;16.10;64.80;;;;;;5067763;28;43949;-69
2021/12/24 11:18:07;;;;;;;3.43;3.23;;;16.10;64.70;;;;;;5066913;28;43964;-69
2021/12/24 11:20:36;;;;;;;2.90;2.80;;;16.20;64.40;;;;;;5067287;28;43968;-68
2021/12/24 11:23:06;;;;;;;3.10;2.90;;;16.20;64.20;;;;;;5060258;28;43955;-69
2021/12/24 11:25:35;;;;;;;3.03;2.90;;;16.30;64.10;;;;;;5060893;28;43950;-68
2021/12/24 11:28:03;;;;;;;3.13;3.03;;;16.20;64.10;;;;;;5060241;28;43978;-69
2021/12/24 11:30:32;;;;;;;3.07;2.97;;;16.20;64.20;;;;;;5066868;28;44044;-68
2021/12/24 11:33:00;;;;;;;3.20;3.00;;;16.20;64.40;;;;;;5067058;28;43932;-69
2021/12/24 11:35:29;;;;;;;3.30;3.10;;;16.10;64.40;;;;;;5067326;28;43960;-69
2021/12/24 11:37:59;;;;;;;3.10;2.90;;;16.10;64.60;;;;;;5065106;28;46305;-69
2021/12/24 11:40:27;;;;;;;2.70;2.60;;;16.10;64.80;;;;;;5065216;28;45391;-69
2021/12/24 11:42:58;;;;;;;3.23;3.13;;;16.10;64.80;;;;;;5066841;28;44125;-70
2021/12/24 11:45:27;;;;;;;3.50;3.20;;;16.00;64.90;;;;;;5067394;28;43943;-69
2021/12/24 11:47:55;;;;;;;3.30;3.10;;;16.00;64.90;;;;;;5066328;28;44094;-68
2021/12/24 11:50:23;;;;;;;2.77;2.67;;;16.00;65.00;;;;;;5066643;28;44038;-68
2021/12/24 11:52:55;;;;;;;3.00;2.90;;;16.00;65.00;;;;;;5067068;28;43958;-69
2021/12/24 11:55:23;;;;;;;3.67;2.83;;;16.00;65.10;;;;;;5067232;28;43927;-69
2021/12/24 11:57:57;;;;;;;3.10;2.90;;;16.00;65.20;;;;;;5066655;28;43988;-69
2021/12/24 12:00:27;;;;;;;2.93;2.83;;;16.10;64.90;;;;;;5066241;28;44167;-69
2021/12/24 12:02:55;;;;;;;3.03;2.83;;;16.20;64.40;;;;;;5066806;28;43895;-69
2021/12/24 12:05:26;;;;;;;3.07;2.87;;;16.40;64.10;;;;;;5067032;28;44038;-69
2021/12/24 12:08:38;;;;;;;3.10;2.90;;;16.50;63.80;;;;;;5066519;28;44796;-69
2021/12/24 12:11:07;;;;;;;3.30;3.10;;;16.40;63.50;;;;;;5063083;28;44003;-69
2021/12/24 12:13:37;;;;;;;2.90;2.80;;;16.40;63.60;;;;;;5066424;28;43978;-70
2021/12/24 12:16:05;;;;;;;3.10;3.00;;;16.40;63.80;;;;;;5066681;28;44091;-69
2021/12/24 12:18:43;;;;;;;2.93;2.83;;;16.30;64.00;;;;;;5065834;28;43948;-69
2021/12/24 12:21:12;;;;;;;2.57;2.47;;;16.30;64.10;;;;;;5065878;28;44007;-69
2021/12/24 12:26:36;;;;;;;2.83;2.73;;;16.20;64.40;;;;;;5031547;28;43542;-69
2021/12/24 12:29:21;;;;;;;3.17;2.97;;;16.20;64.60;;;;;;5064419;28;45670;-69
2021/12/24 12:31:52;;;;;;;3.00;2.90;;;16.10;64.60;;;;;;5066585;28;43956;-69
2021/12/24 12:34:56;;;;;;;3.00;2.90;;;16.10;64.70;;;;;;5066576;28;43893;-69
2021/12/24 12:37:28;;;;;;;3.00;2.90;;;16.10;64.80;;;;;;5066282;28;43601;-69
2021/12/24 12:39:58;;;;;;;2.87;2.70;;;16.10;65.00;;;;;;5065898;28;44039;-69
2021/12/24 12:42:59;;;;;;;2.83;2.73;;;16.20;64.80;;;;;;5066160;28;43936;-69
2021/12/24 12:45:55;;;;;;;3.10;3.00;;;16.20;64.40;;;;;;5066018;28;43374;-69
2021/12/24 12:48:26;;;;;;;2.87;2.77;;;16.20;64.20;;;;;;5064899;28;44024;-70
2021/12/24 12:50:55;;;;;;;2.53;2.43;;;16.20;64.30;;;;;;5066317;28;44059;-69
2021/12/24 12:53:27;;;;;;;2.80;2.70;;;16.20;64.40;;;;;;5064585;28;44117;-69
2021/12/24 12:56:16;;;;;;;2.57;2.47;;;16.10;64.50;;;;;;5059752;28;43997;-69
2021/12/24 12:58:45;;;;;;;2.77;2.67;;;16.10;64.70;;;;;;5066318;28;43908;-69
2021/12/24 13:01:15;;;;;;;2.50;2.50;;;16.10;64.80;;;;;;5065124;28;43929;-69
2021/12/24 13:04:11;;;;;;;2.80;2.60;;;16.00;64.80;;;;;;5065969;28;43478;-69
2021/12/24 13:06:51;;;;;;;2.90;2.70;;;16.00;64.90;;;;;;5065996;28;43983;-70
2021/12/24 13:09:22;;;;;;;3.10;2.90;;;16.00;65.00;;;;;;5066284;28;43972;-69
2021/12/24 13:11:51;;;;;;;2.77;2.67;;;16.00;65.10;;;;;;5065484;28;44042;-69
2021/12/24 13:14:20;;;;;;;2.87;2.70;;;16.00;65.10;;;;;;5065682;28;43854;-69
2021/12/24 13:16:51;;;;;;;2.70;2.60;;;16.00;65.80;;;;;;5065612;28;44083;-69
2021/12/24 13:19:29;;;;;;;2.90;2.70;;;16.00;65.90;;;;;;5066203;28;44058;-68
2021/12/24 13:24:46;;;;;;;2.90;2.80;;;16.20;65.00;;;;;;5065501;28;43471;-69
2021/12/24 13:27:16;;;;;;;2.63;2.53;;;16.40;64.50;;;;;;5065813;28;43915;-69
2021/12/24 13:29:44;;;;;;;2.27;2.27;;;16.50;63.90;;;;;;5066867;28;43602;-69
2021/12/24 13:32:12;;;;;;;2.60;2.50;;;16.60;63.50;;;;;;5068570;28;44802;-69
2021/12/24 13:34:42;;;;;;;2.60;2.50;;;16.60;63.50;;;;;;5068527;28;44107;-69
2021/12/24 13:37:13;;;;;;;2.43;2.37;;;16.50;63.40;;;;;;5068820;28;43998;-69
2021/12/24 13:39:48;;;;;;;2.67;2.57;;;16.50;63.70;;;;;;5069129;28;44565;-69
2021/12/24 13:42:18;;;;;;;2.27;2.23;;;16.40;63.80;;;;;;5068705;28;44025;-69
2021/12/24 13:44:48;;;;;;;2.70;2.50;;;16.30;64.00;;;;;;5068545;28;43915;-69
2021/12/24 13:47:24;;;;;;;2.57;2.47;;;16.30;64.30;;;;;;5068602;28;43913;-70
2021/12/24 13:55:27;;;;;;;2.90;2.80;;;16.10;64.60;;;;;;5068488;28;43922;-69
2021/12/24 13:57:58;;;;;;;2.37;2.30;;;16.10;64.70;;;;;;5068774;28;43999;-69
2021/12/24 14:00:26;;;;;;;2.87;2.50;;;16.10;64.80;;;;;;5068674;28;44007;-69
2021/12/24 14:02:55;;;;;;;2.30;2.30;;;16.10;65.70;;;;;;5066972;28;45149;-69
2021/12/24 14:05:23;;;;;;;2.80;2.70;;;16.20;64.90;;;;;;5067069;28;44908;-69
2021/12/24 14:08:07;;;;;;;2.83;2.70;;;16.30;64.50;;;;;;5068594;28;43977;-70
2021/12/24 14:10:35;;;;;;;3.00;2.80;;;16.30;64.30;;;;;;5068623;28;44030;-69
2021/12/24 14:13:09;;;;;;;3.00;2.90;;;16.30;64.30;;;;;;5067730;28;43983;-69
2021/12/24 14:15:55;;;;;;;2.93;2.83;;;16.30;64.50;;;;;;5068190;28;43908;-70
2021/12/24 14:18:45;;;;;;;2.50;2.40;;;16.20;64.40;;;;;;5068444;28;44034;-69
2021/12/24 14:24:14;;;;;;;2.87;2.77;;;16.10;64.60;;;;;;5068102;28;44793;-69
2021/12/24 14:26:44;;;;;;;3.00;2.80;;;16.10;64.80;;;;;;5067815;28;43963;-70
2021/12/24 14:29:14;;;;;;;2.87;2.60;;;16.10;64.80;;;;;;5068090;28;43952;-70
2021/12/24 14:31:49;;;;;;;2.60;2.50;;;16.10;65.00;;;;;;5068089;28;43641;-70
2021/12/24 14:34:46;;;;;;;2.50;2.40;;;16.10;65.00;;;;;;5067939;28;43954;-70
2021/12/24 14:37:32;;;;;;;2.77;2.67;;;16.10;65.10;;;;;;5067474;28;44212;-69
2021/12/24 14:40:00;;;;;;;2.60;2.50;;;16.10;65.10;;;;;;5068358;28;43998;-70
2021/12/24 14:42:30;;;;;;;2.67;2.57;;;16.10;65.40;;;;;;5068091;28;43557;-69
2021/12/24 14:45:15;;;;;;;2.67;2.57;;;16.10;65.30;;;;;;5067486;28;45215;-69
2021/12/24 14:47:43;;;;;;;3.23;2.57;;;16.20;64.90;;;;;;5076752;28;44863;-69